sensor_id;sensor_type;location;lat;lon;timestamp;temperature;humidity
3690;DHT22;1861;50.240;8.596;2022-07-29T00:30:11;22.80;63.10
3690;DHT22;1861;50.240;8.596;2022-07-29T00:32:59;22.60;64.10
3690;DHT22;1861;50.240;8.596;2022-07-29T00:35:48;22.60;64.30
3690;DHT22;1861;50.240;8.596;2022-07-29T00:38:35;22.60;64.40
3690;DHT22;1861;50.240;8.596;2022-07-29T00:41:24;22.60;64.50
3690;DHT22;1861;50.240;8.596;2022-07-29T00:44:12;22.60;64.40
3690;DHT22;1861;50.240;8.596;2022-07-29T00:47:03;22.60;64.60
3690;DHT22;1861;50.240;8.596;2022-07-29T00:49:51;22.60;64.50
3690;DHT22;1861;50.240;8.596;2022-07-29T00:52:41;22.60;65.20
3690;DHT22;1861;50.240;8.596;2022-07-29T00:55:11;22.60;65.70
3690;DHT22;1861;50.240;8.596;2022-07-29T00:57:40;22.60;66.40
3690;DHT22;1861;50.240;8.596;2022-07-29T01:00:10;22.60;66.70
3690;DHT22;1861;50.240;8.596;2022-07-29T01:02:40;22.50;67.30
3690;DHT22;1861;50.240;8.596;2022-07-29T01:05:09;22.50;67.10
3690;DHT22;1861;50.240;8.596;2022-07-29T01:07:39;22.50;67.00
3690;DHT22;1861;50.240;8.596;2022-07-29T01:10:09;22.50;67.10
3690;DHT22;1861;50.240;8.596;2022-07-29T01:12:38;22.50;67.40
3690;DHT22;1861;50.240;8.596;2022-07-29T01:15:07;22.50;67.80
3690;DHT22;1861;50.240;8.596;2022-07-29T01:17:43;22.50;68.00
3690;DHT22;1861;50.240;8.596;2022-07-29T01:20:25;22.50;68.30
3690;DHT22;1861;50.240;8.596;2022-07-29T01:23:22;22.40;68.60
3690;DHT22;1861;50.240;8.596;2022-07-29T01:26:27;22.50;69.10
3690;DHT22;1861;50.240;8.596;2022-07-29T01:29:03;22.50;69.80
3690;DHT22;1861;50.240;8.596;2022-07-29T01:31:43;22.50;70.30
3690;DHT22;1861;50.240;8.596;2022-07-29T01:34:33;22.50;70.90
3690;DHT22;1861;50.240;8.596;2022-07-29T01:37:08;22.40;71.00
3690;DHT22;1861;50.240;8.596;2022-07-29T01:39:39;22.40;71.60
3690;DHT22;1861;50.240;8.596;2022-07-29T01:42:14;22.50;72.20
3690;DHT22;1861;50.240;8.596;2022-07-29T01:44:54;22.40;72.20
3690;DHT22;1861;50.240;8.596;2022-07-29T01:47:26;22.40;72.40
3690;DHT22;1861;50.240;8.596;2022-07-29T01:50:05;22.40;72.50
3690;DHT22;1861;50.240;8.596;2022-07-29T01:52:39;22.40;72.60
3690;DHT22;1861;50.240;8.596;2022-07-29T01:55:11;22.40;72.70
3690;DHT22;1861;50.240;8.596;2022-07-29T01:57:43;22.40;72.90
3690;DHT22;1861;50.240;8.596;2022-07-29T02:00:15;22.40;73.00
3690;DHT22;1861;50.240;8.596;2022-07-29T02:02:45;22.40;73.10
3690;DHT22;1861;50.240;8.596;2022-07-29T02:05:17;22.30;73.30
3690;DHT22;1861;50.240;8.596;2022-07-29T02:07:46;22.30;73.60
3690;DHT22;1861;50.240;8.596;2022-07-29T02:10:17;22.30;73.90
3690;DHT22;1861;50.240;8.596;2022-07-29T02:12:53;22.30;74.10
3690;DHT22;1861;50.240;8.596;2022-07-29T02:15:24;22.30;74.30
3690;DHT22;1861;50.240;8.596;2022-07-29T02:17:56;22.30;73.50
3690;DHT22;1861;50.240;8.596;2022-07-29T02:20:26;22.30;73.20
3690;DHT22;1861;50.240;8.596;2022-07-29T02:22:57;22.30;73.00
3690;DHT22;1861;50.240;8.596;2022-07-29T02:25:26;22.30;73.10
3690;DHT22;1861;50.240;8.596;2022-07-29T02:28:05;22.30;73.20
3690;DHT22;1861;50.240;8.596;2022-07-29T02:30:38;22.30;73.40
3690;DHT22;1861;50.240;8.596;2022-07-29T02:33:08;22.20;73.10
3690;DHT22;1861;50.240;8.596;2022-07-29T02:35:39;22.30;73.30
3690;DHT22;1861;50.240;8.596;2022-07-29T02:38:08;22.30;73.30
3690;DHT22;1861;50.240;8.596;2022-07-29T02:40:55;22.20;73.40
3690;DHT22;1861;50.240;8.596;2022-07-29T02:43:25;22.20;73.70
3690;DHT22;1861;50.240;8.596;2022-07-29T02:45:56;22.20;73.80
3690;DHT22;1861;50.240;8.596;2022-07-29T02:48:33;22.20;73.80
3690;DHT22;1861;50.240;8.596;2022-07-29T02:51:07;22.20;73.80
3690;DHT22;1861;50.240;8.596;2022-07-29T02:53:42;22.20;74.10
3690;DHT22;1861;50.240;8.596;2022-07-29T02:56:14;22.20;74.10
3690;DHT22;1861;50.240;8.596;2022-07-29T02:58:47;22.20;74.40
3690;DHT22;1861;50.240;8.596;2022-07-29T03:01:22;22.10;74.50
3690;DHT22;1861;50.240;8.596;2022-07-29T03:03:52;22.10;75.00
3690;DHT22;1861;50.240;8.596;2022-07-29T03:06:23;22.20;75.50
3690;DHT22;1861;50.240;8.596;2022-07-29T03:08:57;22.20;76.10
3690;DHT22;1861;50.240;8.596;2022-07-29T03:11:26;22.10;76.70
3690;DHT22;1861;50.240;8.596;2022-07-29T03:14:17;22.10;77.10
3690;DHT22;1861;50.240;8.596;2022-07-29T03:16:49;22.10;77.80
3690;DHT22;1861;50.240;8.596;2022-07-29T03:19:18;22.10;78.10
3690;DHT22;1861;50.240;8.596;2022-07-29T03:21:47;22.20;78.70
3690;DHT22;1861;50.240;8.596;2022-07-29T03:24:29;22.20;79.50
3690;DHT22;1861;50.240;8.596;2022-07-29T03:26:58;22.10;80.30
3690;DHT22;1861;50.240;8.596;2022-07-29T03:29:27;22.10;81.30
3690;DHT22;1861;50.240;8.596;2022-07-29T03:32:03;22.10;81.60
3690;DHT22;1861;50.240;8.596;2022-07-29T03:34:35;22.00;82.80
3690;DHT22;1861;50.240;8.596;2022-07-29T03:37:04;22.00;83.60
3690;DHT22;1861;50.240;8.596;2022-07-29T03:39:38;22.00;84.40
3690;DHT22;1861;50.240;8.596;2022-07-29T03:42:07;22.00;84.70
3690;DHT22;1861;50.240;8.596;2022-07-29T03:44:37;22.00;84.80
3690;DHT22;1861;50.240;8.596;2022-07-29T03:47:07;22.00;85.40
3690;DHT22;1861;50.240;8.596;2022-07-29T03:49:37;21.90;86.30
3690;DHT22;1861;50.240;8.596;2022-07-29T03:52:07;21.80;86.50
3690;DHT22;1861;50.240;8.596;2022-07-29T03:54:36;21.80;87.80
3690;DHT22;1861;50.240;8.596;2022-07-29T03:57:06;21.70;87.80
3690;DHT22;1861;50.240;8.596;2022-07-29T03:59:34;21.70;89.20
3690;DHT22;1861;50.240;8.596;2022-07-29T04:02:05;21.70;90.00
3690;DHT22;1861;50.240;8.596;2022-07-29T04:04:36;21.70;90.50
3690;DHT22;1861;50.240;8.596;2022-07-29T04:07:05;21.70;90.40
3690;DHT22;1861;50.240;8.596;2022-07-29T04:09:33;21.60;90.30
3690;DHT22;1861;50.240;8.596;2022-07-29T04:12:01;21.60;90.30
3690;DHT22;1861;50.240;8.596;2022-07-29T04:14:31;21.60;90.30
3690;DHT22;1861;50.240;8.596;2022-07-29T04:16:59;21.50;90.30
3690;DHT22;1861;50.240;8.596;2022-07-29T04:19:29;21.50;90.70
3690;DHT22;1861;50.240;8.596;2022-07-29T04:21:59;21.40;90.60
3690;DHT22;1861;50.240;8.596;2022-07-29T04:24:27;21.30;90.60
3690;DHT22;1861;50.240;8.596;2022-07-29T04:26:55;21.20;90.40
3690;DHT22;1861;50.240;8.596;2022-07-29T04:29:23;21.20;90.70
3690;DHT22;1861;50.240;8.596;2022-07-29T04:31:52;21.20;91.10
3690;DHT22;1861;50.240;8.596;2022-07-29T04:34:20;21.20;90.90
3690;DHT22;1861;50.240;8.596;2022-07-29T04:36:55;21.10;91.40
3690;DHT22;1861;50.240;8.596;2022-07-29T04:39:23;21.10;91.10
3690;DHT22;1861;50.240;8.596;2022-07-29T04:41:55;21.10;91.00
3690;DHT22;1861;50.240;8.596;2022-07-29T04:44:24;21.10;91.10
3690;DHT22;1861;50.240;8.596;2022-07-29T04:46:56;21.10;91.20
3690;DHT22;1861;50.240;8.596;2022-07-29T04:49:24;21.00;91.10
3690;DHT22;1861;50.240;8.596;2022-07-29T04:51:54;21.00;91.10
3690;DHT22;1861;50.240;8.596;2022-07-29T04:54:22;21.00;91.20
3690;DHT22;1861;50.240;8.596;2022-07-29T04:56:52;21.00;91.10
3690;DHT22;1861;50.240;8.596;2022-07-29T04:59:20;21.00;91.10
3690;DHT22;1861;50.240;8.596;2022-07-29T05:01:48;20.90;90.90
3690;DHT22;1861;50.240;8.596;2022-07-29T05:04:16;20.80;90.90
3690;DHT22;1861;50.240;8.596;2022-07-29T05:06:46;20.90;91.10
3690;DHT22;1861;50.240;8.596;2022-07-29T05:09:17;21.00;91.00
3690;DHT22;1861;50.240;8.596;2022-07-29T05:11:45;21.10;91.00
3690;DHT22;1861;50.240;8.596;2022-07-29T05:14:13;21.10;90.80
3690;DHT22;1861;50.240;8.596;2022-07-29T05:16:42;21.00;90.70
3690;DHT22;1861;50.240;8.596;2022-07-29T05:19:10;21.10;90.80
3690;DHT22;1861;50.240;8.596;2022-07-29T05:21:41;21.10;91.00
3690;DHT22;1861;50.240;8.596;2022-07-29T05:24:09;21.20;90.70
3690;DHT22;1861;50.240;8.596;2022-07-29T05:26:39;21.20;90.70
3690;DHT22;1861;50.240;8.596;2022-07-29T05:29:07;21.20;90.80
3690;DHT22;1861;50.240;8.596;2022-07-29T05:31:56;21.20;90.70
3690;DHT22;1861;50.240;8.596;2022-07-29T05:34:24;21.20;90.60
3690;DHT22;1861;50.240;8.596;2022-07-29T05:36:52;21.20;90.50
3690;DHT22;1861;50.240;8.596;2022-07-29T05:39:21;21.20;90.60
3690;DHT22;1861;50.240;8.596;2022-07-29T05:42:10;21.20;90.60
3690;DHT22;1861;50.240;8.596;2022-07-29T05:44:39;21.20;91.00
3690;DHT22;1861;50.240;8.596;2022-07-29T05:47:07;21.10;91.20
3690;DHT22;1861;50.240;8.596;2022-07-29T05:49:35;21.10;91.20
3690;DHT22;1861;50.240;8.596;2022-07-29T05:52:04;21.20;91.10
3690;DHT22;1861;50.240;8.596;2022-07-29T05:54:32;21.30;91.20
3690;DHT22;1861;50.240;8.596;2022-07-29T05:57:00;21.30;91.40
3690;DHT22;1861;50.240;8.596;2022-07-29T05:59:30;21.30;91.40
3690;DHT22;1861;50.240;8.596;2022-07-29T06:01:58;21.30;91.50
3690;DHT22;1861;50.240;8.596;2022-07-29T06:04:26;21.30;91.50
3690;DHT22;1861;50.240;8.596;2022-07-29T06:06:55;21.30;91.50
3690;DHT22;1861;50.240;8.596;2022-07-29T06:09:23;21.40;91.50
3690;DHT22;1861;50.240;8.596;2022-07-29T06:11:52;21.40;91.60
3690;DHT22;1861;50.240;8.596;2022-07-29T06:14:20;21.40;91.50
3690;DHT22;1861;50.240;8.596;2022-07-29T06:16:50;21.40;91.10
3690;DHT22;1861;50.240;8.596;2022-07-29T06:19:18;21.50;90.80
3690;DHT22;1861;50.240;8.596;2022-07-29T06:21:46;21.60;90.60
3690;DHT22;1861;50.240;8.596;2022-07-29T06:24:15;21.60;90.40
3690;DHT22;1861;50.240;8.596;2022-07-29T06:26:45;21.60;90.50
3690;DHT22;1861;50.240;8.596;2022-07-29T06:29:13;21.60;90.90
3690;DHT22;1861;50.240;8.596;2022-07-29T06:31:41;21.60;91.00
3690;DHT22;1861;50.240;8.596;2022-07-29T06:34:11;21.60;90.80
3690;DHT22;1861;50.240;8.596;2022-07-29T06:36:40;21.60;90.50
3690;DHT22;1861;50.240;8.596;2022-07-29T06:39:08;21.70;89.80
3690;DHT22;1861;50.240;8.596;2022-07-29T06:41:38;21.70;89.80
3690;DHT22;1861;50.240;8.596;2022-07-29T06:44:09;21.70;90.00
3690;DHT22;1861;50.240;8.596;2022-07-29T06:46:37;21.70;89.30
3690;DHT22;1861;50.240;8.596;2022-07-29T06:49:05;21.70;88.60
3690;DHT22;1861;50.240;8.596;2022-07-29T06:51:35;21.80;88.40
3690;DHT22;1861;50.240;8.596;2022-07-29T06:54:03;21.90;88.40
3690;DHT22;1861;50.240;8.596;2022-07-29T06:56:33;21.80;87.60
3690;DHT22;1861;50.240;8.596;2022-07-29T06:59:07;21.80;87.00
3690;DHT22;1861;50.240;8.596;2022-07-29T07:01:36;21.80;86.80
3690;DHT22;1861;50.240;8.596;2022-07-29T07:04:05;21.90;86.00
3690;DHT22;1861;50.240;8.596;2022-07-29T07:06:37;21.90;85.60
3690;DHT22;1861;50.240;8.596;2022-07-29T07:09:05;21.90;85.10
3690;DHT22;1861;50.240;8.596;2022-07-29T07:11:34;21.90;84.80
3690;DHT22;1861;50.240;8.596;2022-07-29T07:14:02;21.90;85.00
3690;DHT22;1861;50.240;8.596;2022-07-29T07:16:31;21.90;85.50
3690;DHT22;1861;50.240;8.596;2022-07-29T07:19:00;22.00;84.50
3690;DHT22;1861;50.240;8.596;2022-07-29T07:21:28;22.00;84.10
3690;DHT22;1861;50.240;8.596;2022-07-29T07:23:59;22.00;83.60
3690;DHT22;1861;50.240;8.596;2022-07-29T07:26:27;22.00;83.50
3690;DHT22;1861;50.240;8.596;2022-07-29T07:28:56;22.00;82.90
3690;DHT22;1861;50.240;8.596;2022-07-29T07:31:24;22.10;83.00
3690;DHT22;1861;50.240;8.596;2022-07-29T07:33:53;22.10;82.50
3690;DHT22;1861;50.240;8.596;2022-07-29T07:36:21;22.10;82.10
3690;DHT22;1861;50.240;8.596;2022-07-29T07:38:49;22.10;81.80
3690;DHT22;1861;50.240;8.596;2022-07-29T07:41:19;22.10;81.30
3690;DHT22;1861;50.240;8.596;2022-07-29T07:43:47;22.10;81.50
3690;DHT22;1861;50.240;8.596;2022-07-29T07:46:16;22.20;81.80
3690;DHT22;1861;50.240;8.596;2022-07-29T07:48:44;22.20;82.00
3690;DHT22;1861;50.240;8.596;2022-07-29T07:51:12;22.20;81.80
3690;DHT22;1861;50.240;8.596;2022-07-29T07:53:41;22.20;81.70
3690;DHT22;1861;50.240;8.596;2022-07-29T07:56:11;22.20;81.40
3690;DHT22;1861;50.240;8.596;2022-07-29T07:58:41;22.30;81.70
3690;DHT22;1861;50.240;8.596;2022-07-29T08:01:10;22.20;81.70
3690;DHT22;1861;50.240;8.596;2022-07-29T08:03:38;22.20;81.50
3690;DHT22;1861;50.240;8.596;2022-07-29T08:06:07;22.30;81.60
3690;DHT22;1861;50.240;8.596;2022-07-29T08:08:35;22.30;81.20
3690;DHT22;1861;50.240;8.596;2022-07-29T08:11:03;22.30;81.60
3690;DHT22;1861;50.240;8.596;2022-07-29T08:13:37;22.30;81.40
3690;DHT22;1861;50.240;8.596;2022-07-29T08:16:07;22.30;81.30
3690;DHT22;1861;50.240;8.596;2022-07-29T08:18:43;22.30;81.30
3690;DHT22;1861;50.240;8.596;2022-07-29T08:21:12;22.40;81.10
3690;DHT22;1861;50.240;8.596;2022-07-29T08:23:42;22.40;80.90
3690;DHT22;1861;50.240;8.596;2022-07-29T08:26:25;22.40;80.80
3690;DHT22;1861;50.240;8.596;2022-07-29T08:28:53;22.40;80.70
3690;DHT22;1861;50.240;8.596;2022-07-29T08:31:23;22.40;80.80
3690;DHT22;1861;50.240;8.596;2022-07-29T08:33:51;22.40;80.80
3690;DHT22;1861;50.240;8.596;2022-07-29T08:36:19;22.40;80.30
3690;DHT22;1861;50.240;8.596;2022-07-29T08:38:48;22.40;80.30
3690;DHT22;1861;50.240;8.596;2022-07-29T08:41:18;22.50;80.40
3690;DHT22;1861;50.240;8.596;2022-07-29T08:43:46;22.50;80.40
3690;DHT22;1861;50.240;8.596;2022-07-29T08:46:15;22.50;80.20
3690;DHT22;1861;50.240;8.596;2022-07-29T08:48:45;22.50;80.10
3690;DHT22;1861;50.240;8.596;2022-07-29T08:51:15;22.50;80.00
3690;DHT22;1861;50.240;8.596;2022-07-29T08:53:45;22.50;79.80
3690;DHT22;1861;50.240;8.596;2022-07-29T08:56:15;22.50;79.80
3690;DHT22;1861;50.240;8.596;2022-07-29T08:58:45;22.50;79.80
3690;DHT22;1861;50.240;8.596;2022-07-29T09:01:22;22.50;79.90
3690;DHT22;1861;50.240;8.596;2022-07-29T09:04:11;22.50;79.80
3690;DHT22;1861;50.240;8.596;2022-07-29T09:06:43;22.60;80.70
3690;DHT22;1861;50.240;8.596;2022-07-29T09:09:12;22.60;80.10
3690;DHT22;1861;50.240;8.596;2022-07-29T09:11:41;22.60;79.80
3690;DHT22;1861;50.240;8.596;2022-07-29T09:14:12;22.60;79.70
3690;DHT22;1861;50.240;8.596;2022-07-29T09:16:48;22.60;79.70
3690;DHT22;1861;50.240;8.596;2022-07-29T09:19:23;22.60;79.90
3690;DHT22;1861;50.240;8.596;2022-07-29T09:21:52;22.60;79.80
3690;DHT22;1861;50.240;8.596;2022-07-29T09:24:42;22.70;79.80
3690;DHT22;1861;50.240;8.596;2022-07-29T09:27:18;22.70;79.90
3690;DHT22;1861;50.240;8.596;2022-07-29T09:29:54;22.70;80.00
3690;DHT22;1861;50.240;8.596;2022-07-29T09:32:22;22.70;80.30
3690;DHT22;1861;50.240;8.596;2022-07-29T09:35:16;22.70;80.20
3690;DHT22;1861;50.240;8.596;2022-07-29T09:37:44;22.70;80.20
3690;DHT22;1861;50.240;8.596;2022-07-29T09:40:16;22.80;80.30
3690;DHT22;1861;50.240;8.596;2022-07-29T09:42:44;22.80;80.20
3690;DHT22;1861;50.240;8.596;2022-07-29T09:45:26;22.80;80.10
3690;DHT22;1861;50.240;8.596;2022-07-29T09:47:54;22.80;80.10
3690;DHT22;1861;50.240;8.596;2022-07-29T09:50:37;22.80;80.00
3690;DHT22;1861;50.240;8.596;2022-07-29T09:53:05;22.80;80.50
3690;DHT22;1861;50.240;8.596;2022-07-29T09:55:46;22.80;79.80
3690;DHT22;1861;50.240;8.596;2022-07-29T09:58:16;22.80;79.70
3690;DHT22;1861;50.240;8.596;2022-07-29T10:00:45;22.80;79.80
3690;DHT22;1861;50.240;8.596;2022-07-29T10:03:15;22.90;79.70
3690;DHT22;1861;50.240;8.596;2022-07-29T10:05:45;22.90;79.80
3690;DHT22;1861;50.240;8.596;2022-07-29T10:08:25;22.90;79.70
3690;DHT22;1861;50.240;8.596;2022-07-29T10:11:09;23.00;80.10
3690;DHT22;1861;50.240;8.596;2022-07-29T10:13:38;23.00;80.00
3690;DHT22;1861;50.240;8.596;2022-07-29T10:16:07;23.00;80.00
3690;DHT22;1861;50.240;8.596;2022-07-29T10:18:35;23.00;79.90
3690;DHT22;1861;50.240;8.596;2022-07-29T10:21:06;23.10;80.20
3690;DHT22;1861;50.240;8.596;2022-07-29T10:23:35;23.10;80.30
3690;DHT22;1861;50.240;8.596;2022-07-29T10:26:13;23.10;80.00
3690;DHT22;1861;50.240;8.596;2022-07-29T10:28:42;23.10;79.80
3690;DHT22;1861;50.240;8.596;2022-07-29T10:31:18;23.10;79.80
3690;DHT22;1861;50.240;8.596;2022-07-29T10:33:55;23.10;79.90
3690;DHT22;1861;50.240;8.596;2022-07-29T10:36:45;23.10;79.90
3690;DHT22;1861;50.240;8.596;2022-07-29T10:39:24;23.20;80.00
3690;DHT22;1861;50.240;8.596;2022-07-29T10:42:18;23.20;80.10
3690;DHT22;1861;50.240;8.596;2022-07-29T10:45:00;23.20;80.00
3690;DHT22;1861;50.240;8.596;2022-07-29T10:47:30;23.30;80.10
3690;DHT22;1861;50.240;8.596;2022-07-29T10:50:02;23.30;80.10
3690;DHT22;1861;50.240;8.596;2022-07-29T10:52:53;23.30;80.50
3690;DHT22;1861;50.240;8.596;2022-07-29T10:55:31;23.40;80.90
3690;DHT22;1861;50.240;8.596;2022-07-29T10:58:16;23.40;80.40
3690;DHT22;1861;50.240;8.596;2022-07-29T11:00:46;23.40;80.40
3690;DHT22;1861;50.240;8.596;2022-07-29T11:03:44;23.50;80.50
3690;DHT22;1861;50.240;8.596;2022-07-29T11:09:36;23.50;80.20
3690;DHT22;1861;50.240;8.596;2022-07-29T11:15:09;23.60;80.40
3690;DHT22;1861;50.240;8.596;2022-07-29T11:18:05;23.60;80.30
3690;DHT22;1861;50.240;8.596;2022-07-29T11:20:42;23.60;80.20
3690;DHT22;1861;50.240;8.596;2022-07-29T11:23:22;23.60;80.50
3690;DHT22;1861;50.240;8.596;2022-07-29T11:26:18;23.60;80.60
3690;DHT22;1861;50.240;8.596;2022-07-29T11:28:52;23.70;80.50
3690;DHT22;1861;50.240;8.596;2022-07-29T11:31:33;23.80;80.40
3690;DHT22;1861;50.240;8.596;2022-07-29T11:34:18;23.80;80.40
3690;DHT22;1861;50.240;8.596;2022-07-29T11:37:22;23.80;80.30
3690;DHT22;1861;50.240;8.596;2022-07-29T11:40:14;23.80;79.90
3690;DHT22;1861;50.240;8.596;2022-07-29T11:42:49;23.90;79.70
3690;DHT22;1861;50.240;8.596;2022-07-29T11:45:20;24.00;79.80
3690;DHT22;1861;50.240;8.596;2022-07-29T11:48:15;24.00;79.70
3690;DHT22;1861;50.240;8.596;2022-07-29T11:50:59;24.00;79.70
3690;DHT22;1861;50.240;8.596;2022-07-29T11:53:29;24.10;79.70
3690;DHT22;1861;50.240;8.596;2022-07-29T11:55:59;24.20;79.60
3690;DHT22;1861;50.240;8.596;2022-07-29T11:58:30;24.20;79.60
3690;DHT22;1861;50.240;8.596;2022-07-29T12:01:00;24.40;79.60
3690;DHT22;1861;50.240;8.596;2022-07-29T12:03:31;24.30;79.00
3690;DHT22;1861;50.240;8.596;2022-07-29T12:06:03;24.40;79.50
3690;DHT22;1861;50.240;8.596;2022-07-29T12:08:40;24.50;79.30
3690;DHT22;1861;50.240;8.596;2022-07-29T12:11:17;24.50;79.10
3690;DHT22;1861;50.240;8.596;2022-07-29T12:13:49;24.50;79.00
3690;DHT22;1861;50.240;8.596;2022-07-29T12:16:18;24.50;78.80
3690;DHT22;1861;50.240;8.596;2022-07-29T12:18:57;24.60;78.60
3690;DHT22;1861;50.240;8.596;2022-07-29T12:21:25;24.60;78.80
3690;DHT22;1861;50.240;8.596;2022-07-29T12:23:56;24.60;78.70
3690;DHT22;1861;50.240;8.596;2022-07-29T12:26:35;24.60;78.40
3690;DHT22;1861;50.240;8.596;2022-07-29T12:29:04;24.70;78.50
3690;DHT22;1861;50.240;8.596;2022-07-29T12:31:41;24.80;78.70
3690;DHT22;1861;50.240;8.596;2022-07-29T12:34:12;24.80;78.80
3690;DHT22;1861;50.240;8.596;2022-07-29T12:36:41;24.80;78.50
3690;DHT22;1861;50.240;8.596;2022-07-29T12:39:10;24.80;78.50
3690;DHT22;1861;50.240;8.596;2022-07-29T12:41:39;24.80;78.30
3690;DHT22;1861;50.240;8.596;2022-07-29T12:44:09;24.90;78.40
3690;DHT22;1861;50.240;8.596;2022-07-29T12:46:37;24.90;78.20
3690;DHT22;1861;50.240;8.596;2022-07-29T12:49:05;24.80;78.40
3690;DHT22;1861;50.240;8.596;2022-07-29T12:51:35;24.90;78.60
3690;DHT22;1861;50.240;8.596;2022-07-29T12:54:06;25.00;78.20
3690;DHT22;1861;50.240;8.596;2022-07-29T12:56:35;24.90;78.00
3690;DHT22;1861;50.240;8.596;2022-07-29T12:59:14;25.00;78.10
3690;DHT22;1861;50.240;8.596;2022-07-29T13:01:43;25.00;77.90
3690;DHT22;1861;50.240;8.596;2022-07-29T13:04:11;24.90;77.80
3690;DHT22;1861;50.240;8.596;2022-07-29T13:06:58;24.90;77.80
3690;DHT22;1861;50.240;8.596;2022-07-29T13:09:36;24.80;77.50
3690;DHT22;1861;50.240;8.596;2022-07-29T13:12:06;24.80;77.60
3690;DHT22;1861;50.240;8.596;2022-07-29T13:14:39;24.80;78.00
3690;DHT22;1861;50.240;8.596;2022-07-29T13:17:10;24.60;77.80
3690;DHT22;1861;50.240;8.596;2022-07-29T13:19:40;24.50;78.10
3690;DHT22;1861;50.240;8.596;2022-07-29T13:22:09;24.60;77.80
3690;DHT22;1861;50.240;8.596;2022-07-29T13:24:48;24.50;78.00
3690;DHT22;1861;50.240;8.596;2022-07-29T13:27:17;24.30;78.20
3690;DHT22;1861;50.240;8.596;2022-07-29T13:29:47;24.30;78.60
3690;DHT22;1861;50.240;8.596;2022-07-29T13:32:18;24.30;78.70
3690;DHT22;1861;50.240;8.596;2022-07-29T13:34:55;24.20;78.80
3690;DHT22;1861;50.240;8.596;2022-07-29T13:37:23;24.10;78.90
3690;DHT22;1861;50.240;8.596;2022-07-29T13:39:52;24.10;79.00
3690;DHT22;1861;50.240;8.596;2022-07-29T13:42:21;24.00;78.90
3690;DHT22;1861;50.240;8.596;2022-07-29T13:44:51;24.00;79.10
3690;DHT22;1861;50.240;8.596;2022-07-29T13:47:19;24.00;79.20
3690;DHT22;1861;50.240;8.596;2022-07-29T13:49:47;23.90;79.20
3690;DHT22;1861;50.240;8.596;2022-07-29T13:52:16;23.90;79.30
3690;DHT22;1861;50.240;8.596;2022-07-29T13:54:44;23.90;79.30
3690;DHT22;1861;50.240;8.596;2022-07-29T13:57:13;23.90;79.40
3690;DHT22;1861;50.240;8.596;2022-07-29T13:59:42;23.90;79.50
3690;DHT22;1861;50.240;8.596;2022-07-29T14:02:12;23.80;79.30
3690;DHT22;1861;50.240;8.596;2022-07-29T14:04:41;23.80;79.40
3690;DHT22;1861;50.240;8.596;2022-07-29T14:07:09;23.80;79.50
3690;DHT22;1861;50.240;8.596;2022-07-29T14:09:42;23.70;79.20
3690;DHT22;1861;50.240;8.596;2022-07-29T14:12:10;23.70;79.30
3690;DHT22;1861;50.240;8.596;2022-07-29T14:14:39;23.70;79.30
3690;DHT22;1861;50.240;8.596;2022-07-29T14:17:09;23.60;79.30
3690;DHT22;1861;50.240;8.596;2022-07-29T14:19:38;23.60;79.30
3690;DHT22;1861;50.240;8.596;2022-07-29T14:22:08;23.60;79.30
3690;DHT22;1861;50.240;8.596;2022-07-29T14:24:37;23.60;79.40
3690;DHT22;1861;50.240;8.596;2022-07-29T14:27:06;23.60;79.50
3690;DHT22;1861;50.240;8.596;2022-07-29T14:29:34;23.60;79.70
3690;DHT22;1861;50.240;8.596;2022-07-29T14:32:05;23.60;81.70
3690;DHT22;1861;50.240;8.596;2022-07-29T14:34:34;23.60;83.40
3690;DHT22;1861;50.240;8.596;2022-07-29T14:37:04;23.60;83.10
3690;DHT22;1861;50.240;8.596;2022-07-29T14:39:33;23.60;83.20
3690;DHT22;1861;50.240;8.596;2022-07-29T14:42:09;23.60;82.80
3690;DHT22;1861;50.240;8.596;2022-07-29T14:44:38;23.50;82.30
3690;DHT22;1861;50.240;8.596;2022-07-29T14:47:08;23.50;82.60
3690;DHT22;1861;50.240;8.596;2022-07-29T14:49:37;23.50;82.50
3690;DHT22;1861;50.240;8.596;2022-07-29T14:52:06;23.50;82.50
3690;DHT22;1861;50.240;8.596;2022-07-29T14:54:34;23.50;82.60
3690;DHT22;1861;50.240;8.596;2022-07-29T14:57:02;23.50;82.60
3690;DHT22;1861;50.240;8.596;2022-07-29T14:59:30;23.50;82.60
3690;DHT22;1861;50.240;8.596;2022-07-29T15:01:59;23.40;83.10
3690;DHT22;1861;50.240;8.596;2022-07-29T15:04:27;23.50;83.20
3690;DHT22;1861;50.240;8.596;2022-07-29T15:06:56;23.50;83.40
3690;DHT22;1861;50.240;8.596;2022-07-29T15:09:25;23.40;83.50
3690;DHT22;1861;50.240;8.596;2022-07-29T15:11:54;23.50;83.10
3690;DHT22;1861;50.240;8.596;2022-07-29T15:14:22;23.50;83.50
3690;DHT22;1861;50.240;8.596;2022-07-29T15:16:51;23.50;83.60
3690;DHT22;1861;50.240;8.596;2022-07-29T15:19:19;23.40;83.90
3690;DHT22;1861;50.240;8.596;2022-07-29T15:21:47;23.50;84.70
3690;DHT22;1861;50.240;8.596;2022-07-29T15:24:16;23.50;85.00
3690;DHT22;1861;50.240;8.596;2022-07-29T15:26:46;23.50;85.40
3690;DHT22;1861;50.240;8.596;2022-07-29T15:29:14;23.50;85.10
3690;DHT22;1861;50.240;8.596;2022-07-29T15:31:43;23.50;85.10
3690;DHT22;1861;50.240;8.596;2022-07-29T15:34:11;23.40;85.60
3690;DHT22;1861;50.240;8.596;2022-07-29T15:36:40;23.50;85.50
3690;DHT22;1861;50.240;8.596;2022-07-29T15:39:19;23.50;86.10
3690;DHT22;1861;50.240;8.596;2022-07-29T15:41:49;23.50;86.50
3690;DHT22;1861;50.240;8.596;2022-07-29T15:44:17;23.40;86.30
3690;DHT22;1861;50.240;8.596;2022-07-29T15:46:47;23.50;86.80
3690;DHT22;1861;50.240;8.596;2022-07-29T15:49:32;23.40;87.10
3690;DHT22;1861;50.240;8.596;2022-07-29T15:52:17;23.40;86.70
3690;DHT22;1861;50.240;8.596;2022-07-29T15:54:53;23.40;87.00
3690;DHT22;1861;50.240;8.596;2022-07-29T15:57:23;23.40;87.70
3690;DHT22;1861;50.240;8.596;2022-07-29T15:59:52;23.40;87.10
3690;DHT22;1861;50.240;8.596;2022-07-29T16:02:20;23.40;87.20
3690;DHT22;1861;50.240;8.596;2022-07-29T16:04:48;23.40;87.10
3690;DHT22;1861;50.240;8.596;2022-07-29T16:07:17;23.40;87.20
3690;DHT22;1861;50.240;8.596;2022-07-29T16:09:45;23.40;88.20
3690;DHT22;1861;50.240;8.596;2022-07-29T16:12:19;23.40;87.10
3690;DHT22;1861;50.240;8.596;2022-07-29T16:14:49;23.30;86.80
3690;DHT22;1861;50.240;8.596;2022-07-29T16:17:18;23.40;86.80
3690;DHT22;1861;50.240;8.596;2022-07-29T16:19:47;23.30;86.70
3690;DHT22;1861;50.240;8.596;2022-07-29T16:22:15;23.40;87.30
3690;DHT22;1861;50.240;8.596;2022-07-29T16:24:43;23.30;86.80
3690;DHT22;1861;50.240;8.596;2022-07-29T16:27:11;23.40;88.60
3690;DHT22;1861;50.240;8.596;2022-07-29T16:29:39;23.30;90.10
3690;DHT22;1861;50.240;8.596;2022-07-29T16:32:09;23.40;90.00
3690;DHT22;1861;50.240;8.596;2022-07-29T16:34:37;23.30;90.70
3690;DHT22;1861;50.240;8.596;2022-07-29T16:37:05;23.40;90.40
3690;DHT22;1861;50.240;8.596;2022-07-29T16:39:33;23.40;90.30
3690;DHT22;1861;50.240;8.596;2022-07-29T16:42:02;23.40;90.30
3690;DHT22;1861;50.240;8.596;2022-07-29T16:44:31;23.40;90.30
3690;DHT22;1861;50.240;8.596;2022-07-29T16:47:01;23.40;90.70
3690;DHT22;1861;50.240;8.596;2022-07-29T16:49:31;23.40;90.90
3690;DHT22;1861;50.240;8.596;2022-07-29T16:51:59;23.40;90.80
3690;DHT22;1861;50.240;8.596;2022-07-29T16:54:27;23.40;90.70
3690;DHT22;1861;50.240;8.596;2022-07-29T16:56:56;23.40;91.00
3690;DHT22;1861;50.240;8.596;2022-07-29T16:59:27;23.40;91.20
3690;DHT22;1861;50.240;8.596;2022-07-29T17:01:55;23.40;91.60
3690;DHT22;1861;50.240;8.596;2022-07-29T17:04:25;23.40;91.60
3690;DHT22;1861;50.240;8.596;2022-07-29T17:06:54;23.40;91.70
3690;DHT22;1861;50.240;8.596;2022-07-29T17:09:23;23.40;91.90